Quinby, Virginia
Current Conditions -  °F | °C
As of 9:15 PM on Saturday 22 Nov 2014 (Local Time) from KMFV Reporting Station
Clear Clear  
Wind Chill: -3°   Ceiling: Unl
Heat Index:   Visibility: 10mi
Dew Point: -4°   Wind: 5mph
Humidity: 75%   Direction: 200°SSW
Pressure: 30.35"   Gusts: NA
Location:  37.55°N, 75.73°W
Report Text: KMFV 230215Z AUTO 20004KT 10SM CLR 00/M04 A3035 RMK AO2
Loading
Personal Weather Stations






























Interactive Weather Map New forecast layout! Learn more

10-Day Weather Forecast

Advertisements
Track Severe Weather on mobile